Time;durP1;ratioP1;P1;durP2;ratioP2;P2;SDS_P1;SDS_P2;PMS_P1;PMS_P2;Temp;Humidity;BMP_temperature;BMP_pressure;BME280_temperature;BME280_humidity;BME280_pressure;Samples;Min_cycle;Max_cycle;Signal;HPM_P1;HPM_P2
2022/06/03 00:00:03;;;;;;;3.73;2.60;;;17.00;99.40;;;;;;6058359;23;21413;-83
2022/06/03 00:03:03;;;;;;;3.53;2.80;;;16.90;99.50;;;;;;6054012;23;20461;-83
2022/06/03 00:06:09;;;;;;;3.30;3.00;;;16.90;99.60;;;;;;6053683;23;20952;-84
2022/06/03 00:09:03;;;;;;;3.07;2.77;;;16.90;99.80;;;;;;6009727;23;20798;-83
2022/06/03 00:11:44;;;;;;;2.50;2.40;;;16.90;99.90;;;;;;6004473;23;21033;-83
2022/06/03 00:14:36;;;;;;;3.30;3.00;;;16.90;99.90;;;;;;6056022;23;20816;-83
2022/06/03 00:17:13;;;;;;;3.70;3.40;;;16.90;99.90;;;;;;6058135;23;20550;-84
2022/06/03 00:19:57;;;;;;;3.13;2.93;;;16.80;99.90;;;;;;6058779;23;20936;-83
2022/06/03 00:22:45;;;;;;;2.83;2.73;;;16.80;99.90;;;;;;6052381;23;20921;-83
2022/06/03 00:25:45;;;;;;;2.60;2.40;;;16.90;99.90;;;;;;6061420;23;20476;-84
2022/06/03 00:28:41;;;;;;;3.13;2.93;;;16.80;99.90;;;;;;6056103;23;20475;-83
2022/06/03 00:31:20;;;;;;;4.30;2.90;;;16.80;99.90;;;;;;6060022;23;20843;-84
2022/06/03 00:34:07;;;;;;;3.80;2.60;;;16.70;99.90;;;;;;6060745;23;20516;-83
2022/06/03 00:36:47;;;;;;;3.20;3.00;;;16.70;99.90;;;;;;6052514;23;20467;-82
2022/06/03 00:39:41;;;;;;;3.30;3.07;;;16.60;99.90;;;;;;6051687;23;20450;-83
2022/06/03 00:42:28;;;;;;;3.10;2.90;;;16.60;99.90;;;;;;6059870;23;20502;-84
2022/06/03 00:45:11;;;;;;;3.40;3.17;;;16.50;99.90;;;;;;6059537;23;20451;-83
2022/06/03 00:47:52;;;;;;;3.10;2.90;;;16.50;99.90;;;;;;6060319;23;20482;-83
2022/06/03 00:50:51;;;;;;;4.40;2.60;;;16.50;99.90;;;;;;6059370;23;20499;-83
2022/06/03 00:53:46;;;;;;;3.10;2.80;;;16.50;99.90;;;;;;6033977;23;20783;-83
2022/06/03 00:56:37;;;;;;;3.20;2.90;;;16.50;99.90;;;;;;6005072;23;20555;-84
2022/06/03 00:59:18;;;;;;;3.63;3.43;;;16.50;99.90;;;;;;6060997;23;20538;-83
2022/06/03 01:01:54;;;;;;;3.60;3.30;;;16.50;99.90;;;;;;6046564;23;20595;-83
2022/06/03 01:04:36;;;;;;;3.10;2.90;;;16.50;99.90;;;;;;6061772;23;20525;-83
2022/06/03 01:07:17;;;;;;;3.70;3.40;;;16.50;99.90;;;;;;6051367;23;20497;-83
2022/06/03 01:10:20;;;;;;;3.13;2.93;;;16.40;99.90;;;;;;6051466;23;20834;-83
2022/06/03 01:13:06;;;;;;;2.93;2.73;;;16.40;99.90;;;;;;6052632;23;20444;-83
2022/06/03 01:15:42;;;;;;;3.27;2.97;;;16.30;99.90;;;;;;6059028;23;20534;-83
2022/06/03 01:18:24;;;;;;;3.23;2.97;;;16.20;99.90;;;;;;6054021;23;20511;-83
2022/06/03 01:21:05;;;;;;;3.60;3.17;;;16.20;99.90;;;;;;6049991;23;20472;-82
2022/06/03 01:24:16;;;;;;;3.30;3.00;;;16.20;99.90;;;;;;6050017;23;20467;-82
2022/06/03 01:27:26;;;;;;;3.70;3.40;;;16.20;99.90;;;;;;6056851;23;20460;-83
2022/06/03 01:30:25;;;;;;;3.23;2.93;;;16.20;99.90;;;;;;6046032;23;20520;-83
2022/06/03 01:33:31;;;;;;;3.30;2.80;;;16.20;99.90;;;;;;6009936;23;20480;-83
2022/06/03 01:36:32;;;;;;;3.00;2.80;;;16.20;99.90;;;;;;6043219;23;20844;-82
2022/06/03 01:39:19;;;;;;;3.33;3.03;;;16.20;99.90;;;;;;6046886;23;20453;-83
2022/06/03 01:42:32;;;;;;;3.03;2.80;;;16.20;99.90;;;;;;5976616;23;20527;-83
2022/06/03 01:45:20;;;;;;;3.10;2.90;;;16.20;99.90;;;;;;6056832;23;20446;-83
2022/06/03 01:48:07;;;;;;;3.10;2.87;;;16.10;99.90;;;;;;6057711;23;20468;-82
2022/06/03 01:50:53;;;;;;;3.10;2.90;;;16.10;99.90;;;;;;6054229;23;20463;-83
2022/06/03 01:53:55;;;;;;;2.70;2.50;;;16.10;99.90;;;;;;6058178;23;20464;-83
2022/06/03 01:56:59;;;;;;;3.17;2.97;;;16.10;99.90;;;;;;5976346;23;20569;-83
2022/06/03 01:59:59;;;;;;;3.10;2.90;;;16.10;99.90;;;;;;6033568;23;20518;-84
2022/06/03 02:02:48;;;;;;;2.80;2.60;;;16.10;99.90;;;;;;6053836;23;20448;-83
2022/06/03 02:05:51;;;;;;;3.10;2.90;;;16.10;99.90;;;;;;6049561;23;20443;-83
2022/06/03 02:09:02;;;;;;;2.77;2.63;;;16.10;99.90;;;;;;6056142;23;20447;-83
2022/06/03 02:12:02;;;;;;;3.10;2.90;;;16.20;99.90;;;;;;6056062;23;20790;-83
2022/06/03 02:15:23;;;;;;;3.20;2.87;;;16.30;99.90;;;;;;6029464;23;20794;-83
2022/06/03 02:18:20;;;;;;;2.97;2.77;;;16.20;99.90;;;;;;6057035;23;20482;-83
2022/06/03 02:21:26;;;;;;;2.93;2.73;;;16.20;99.90;;;;;;6052893;23;20474;-83
2022/06/03 02:24:27;;;;;;;3.30;3.10;;;16.20;99.90;;;;;;6025392;23;20498;-83
2022/06/03 02:27:28;;;;;;;2.73;2.50;;;16.30;99.90;;;;;;6051302;23;20463;-83
2022/06/03 02:30:29;;;;;;;2.83;2.63;;;16.30;99.90;;;;;;5998157;23;20432;-84
2022/06/03 02:33:28;;;;;;;3.53;2.93;;;16.40;99.90;;;;;;6059792;23;20453;-84
2022/06/03 02:36:59;;;;;;;2.97;2.77;;;16.40;99.90;;;;;;6053996;23;20544;-84
2022/06/03 02:39:52;;;;;;;2.93;2.73;;;16.40;99.90;;;;;;6053045;23;20468;-84
2022/06/03 02:42:45;;;;;;;2.70;2.60;;;16.50;99.90;;;;;;6059854;23;20459;-83
2022/06/03 02:45:39;;;;;;;2.40;2.30;;;16.50;99.90;;;;;;6029436;23;20456;-83
2022/06/03 02:48:33;;;;;;;3.50;3.20;;;16.40;99.90;;;;;;6059122;23;20503;-83
2022/06/03 02:51:11;;;;;;;3.20;2.97;;;16.40;99.90;;;;;;6049297;23;20503;-83
2022/06/03 02:54:17;;;;;;;3.13;2.70;;;16.40;99.90;;;;;;6059571;23;20507;-83
2022/06/03 02:57:01;;;;;;;2.80;2.60;;;16.30;99.90;;;;;;6056696;23;20467;-83
2022/06/03 03:00:05;;;;;;;2.97;2.77;;;16.20;99.90;;;;;;6057683;23;21025;-84
2022/06/03 03:02:41;;;;;;;2.80;2.60;;;16.20;99.90;;;;;;6043603;23;20478;-83
2022/06/03 03:05:24;;;;;;;3.90;2.90;;;16.20;99.90;;;;;;6058532;23;20494;-83
2022/06/03 03:08:37;;;;;;;3.00;2.80;;;16.20;99.90;;;;;;6052468;23;20544;-84
2022/06/03 03:11:45;;;;;;;2.80;2.60;;;16.20;99.90;;;;;;6045994;23;20432;-83
2022/06/03 03:14:48;;;;;;;2.90;2.60;;;16.30;99.90;;;;;;6056521;23;20518;-83
2022/06/03 03:18:02;;;;;;;2.97;2.77;;;16.20;99.90;;;;;;6056950;23;20539;-83
2022/06/03 03:20:56;;;;;;;3.10;2.80;;;16.30;99.90;;;;;;6059948;23;20526;-82
2022/06/03 03:23:59;;;;;;;3.57;2.50;;;16.30;99.90;;;;;;6051779;23;20464;-83
2022/06/03 03:26:41;;;;;;;2.43;2.23;;;16.30;99.90;;;;;;6060951;23;20494;-83
2022/06/03 03:29:39;;;;;;;3.93;3.03;;;16.20;99.90;;;;;;6051424;23;20965;-83
2022/06/03 03:32:19;;;;;;;2.60;2.40;;;16.30;99.90;;;;;;6059795;23;20938;-83
2022/06/03 03:35:28;;;;;;;2.90;2.70;;;16.20;99.90;;;;;;6060107;23;20505;-83
2022/06/03 03:38:20;;;;;;;3.10;2.87;;;16.30;99.90;;;;;;6048536;23;20443;-83
2022/06/03 03:41:13;;;;;;;3.33;3.13;;;16.20;99.90;;;;;;6059268;23;20882;-84
2022/06/03 03:44:06;;;;;;;2.83;2.60;;;16.10;99.90;;;;;;6057343;23;20459;-83
2022/06/03 03:47:02;;;;;;;2.90;2.70;;;16.00;99.90;;;;;;6060999;23;20456;-83
2022/06/03 03:50:06;;;;;;;2.90;2.70;;;16.00;99.90;;;;;;6056393;23;20447;-83
2022/06/03 03:53:10;;;;;;;2.77;2.57;;;16.00;99.90;;;;;;6056019;23;20500;-83
2022/06/03 03:56:17;;;;;;;4.37;2.80;;;16.00;99.90;;;;;;6060005;23;20485;-83
2022/06/03 03:59:27;;;;;;;3.40;3.10;;;16.00;99.90;;;;;;6037004;23;20535;-80
2022/06/03 04:02:26;;;;;;;3.27;3.00;;;16.00;99.90;;;;;;6030569;23;20999;-80
2022/06/03 04:05:14;;;;;;;3.27;3.07;;;16.00;99.90;;;;;;6032436;23;20534;-80
2022/06/03 04:08:13;;;;;;;3.40;3.10;;;16.10;99.90;;;;;;5995241;23;20473;-80
2022/06/03 04:11:10;;;;;;;3.07;2.87;;;16.10;99.90;;;;;;6000925;23;20536;-80
2022/06/03 04:14:12;;;;;;;3.20;2.90;;;16.00;99.90;;;;;;5999507;23;20529;-80
2022/06/03 04:17:25;;;;;;;3.30;3.00;;;15.90;99.90;;;;;;5971967;23;20493;-83
2022/06/03 04:20:35;;;;;;;3.63;3.33;;;15.90;99.90;;;;;;6003259;23;20453;-81
2022/06/03 04:23:40;;;;;;;3.50;2.77;;;15.90;99.90;;;;;;6006394;23;20438;-85
2022/06/03 04:26:49;;;;;;;3.60;3.30;;;15.80;99.90;;;;;;5990195;23;20460;-82
2022/06/03 04:29:50;;;;;;;3.47;3.27;;;15.70;99.90;;;;;;5998857;23;20524;-83
2022/06/03 04:32:49;;;;;;;3.60;3.33;;;15.70;99.90;;;;;;5997909;23;20441;-84
2022/06/03 04:35:56;;;;;;;3.03;2.83;;;15.60;99.90;;;;;;6002384;23;20520;-82
2022/06/03 04:39:10;;;;;;;3.90;3.60;;;15.50;99.90;;;;;;6006010;23;20479;-83
2022/06/03 04:42:17;;;;;;;3.80;3.50;;;15.50;99.90;;;;;;5998045;23;20440;-84
2022/06/03 04:45:22;;;;;;;3.37;3.17;;;15.40;99.90;;;;;;5984055;23;20470;-85
2022/06/03 04:48:43;;;;;;;4.83;4.43;;;15.40;99.90;;;;;;5967863;23;20750;-85
2022/06/03 04:51:53;;;;;;;4.50;4.20;;;15.60;99.90;;;;;;5946842;24;20518;-85
2022/06/03 04:55:02;;;;;;;3.50;3.20;;;15.70;99.90;;;;;;5943873;24;20468;-84
2022/06/03 04:58:05;;;;;;;3.67;3.37;;;15.80;99.90;;;;;;5948554;23;20470;-85
2022/06/03 05:01:07;;;;;;;4.37;3.97;;;16.00;99.90;;;;;;5991122;23;20484;-86
2022/06/03 05:04:30;;;;;;;3.90;3.60;;;16.10;99.90;;;;;;6006249;23;20476;-85
2022/06/03 05:07:32;;;;;;;4.00;3.70;;;16.30;99.90;;;;;;6012858;23;20905;-87
2022/06/03 05:10:54;;;;;;;4.53;4.10;;;16.40;99.90;;;;;;6007221;23;20443;-85
2022/06/03 05:14:01;;;;;;;4.30;4.00;;;16.50;99.90;;;;;;6003310;23;20461;-85
2022/06/03 05:17:07;;;;;;;5.33;4.40;;;16.60;99.90;;;;;;5966384;23;20462;-86
2022/06/03 05:20:26;;;;;;;4.87;4.47;;;16.70;99.90;;;;;;6009018;23;20432;-86
2022/06/03 05:23:42;;;;;;;5.30;4.50;;;16.70;99.90;;;;;;5987899;23;20438;-86
2022/06/03 05:26:42;;;;;;;4.40;4.03;;;16.70;99.90;;;;;;6004655;23;20546;-78
2022/06/03 05:29:37;;;;;;;4.93;4.63;;;16.60;99.90;;;;;;6001904;23;20834;-78
2022/06/03 05:32:41;;;;;;;4.83;4.50;;;16.60;99.90;;;;;;6004577;23;20546;-85
2022/06/03 05:35:39;;;;;;;4.80;4.43;;;16.50;99.90;;;;;;5995760;23;20483;-87
2022/06/03 05:38:25;;;;;;;4.50;4.20;;;16.50;99.90;;;;;;6000346;23;20835;-87
2022/06/03 05:44:22;;;;;;;4.80;4.50;;;16.60;99.90;;;;;;6002845;23;20482;-87
2022/06/03 05:46:59;;;;;;;5.77;5.33;;;16.70;99.90;;;;;;6001858;23;20453;-86
2022/06/03 05:49:41;;;;;;;5.97;5.57;;;16.70;99.90;;;;;;5996888;23;20927;-83
2022/06/03 05:52:29;;;;;;;6.33;5.93;;;16.70;99.90;;;;;;5994260;23;20813;-85
2022/06/03 05:55:09;;;;;;;6.60;6.00;;;16.80;99.90;;;;;;5997654;23;20831;-85
2022/06/03 05:57:40;;;;;;;6.27;5.77;;;16.80;99.90;;;;;;5997432;23;20960;-84
2022/06/03 06:00:37;;;;;;;6.70;6.20;;;16.90;99.90;;;;;;6001056;23;20443;-83
2022/06/03 06:03:22;;;;;;;6.40;5.90;;;17.10;99.90;;;;;;5999416;23;20436;-84
2022/06/03 06:06:01;;;;;;;6.43;6.03;;;17.20;99.90;;;;;;6002518;23;20521;-84
2022/06/03 06:08:40;;;;;;;9.27;8.40;;;17.30;99.90;;;;;;6000162;23;20439;-84
2022/06/03 06:11:17;;;;;;;8.23;7.57;;;17.40;99.90;;;;;;5996297;23;20534;-84
2022/06/03 06:14:15;;;;;;;8.13;7.53;;;17.40;99.90;;;;;;6002459;23;21411;-84
2022/06/03 06:16:45;;;;;;;10.20;8.30;;;17.50;99.90;;;;;;6002840;23;20513;-84
2022/06/03 06:19:23;;;;;;;8.63;7.83;;;17.60;99.90;;;;;;5999185;23;21010;-83
2022/06/03 06:22:03;;;;;;;8.77;8.17;;;17.70;99.90;;;;;;6005613;23;20539;-83
2022/06/03 06:24:56;;;;;;;8.70;7.80;;;17.70;99.90;;;;;;6001436;23;20476;-84
2022/06/03 06:27:52;;;;;;;8.40;7.70;;;17.80;99.90;;;;;;6009673;23;20440;-83
2022/06/03 06:30:28;;;;;;;8.70;7.90;;;17.90;99.90;;;;;;6002217;23;20436;-84
2022/06/03 06:33:17;;;;;;;8.70;7.90;;;18.10;99.90;;;;;;5977716;23;20604;-84
2022/06/03 06:36:06;;;;;;;8.30;7.60;;;18.30;99.90;;;;;;6004756;23;20477;-83
2022/06/03 06:38:47;;;;;;;8.27;7.67;;;18.40;99.90;;;;;;6013397;23;20447;-84
2022/06/03 06:41:38;;;;;;;8.70;8.10;;;18.50;99.90;;;;;;6011146;23;20548;-84
2022/06/03 06:44:09;;;;;;;8.20;7.60;;;18.70;99.90;;;;;;6007085;23;20823;-83
2022/06/03 06:46:49;;;;;;;7.70;7.20;;;18.80;99.90;;;;;;6012000;23;20975;-84
2022/06/03 06:49:26;;;;;;;7.50;6.60;;;18.90;99.90;;;;;;6014847;23;21031;-84
2022/06/03 06:52:07;;;;;;;8.53;7.83;;;19.00;99.90;;;;;;6004354;23;20758;-85
2022/06/03 06:54:46;;;;;;;8.13;7.43;;;19.20;99.90;;;;;;6014578;23;20960;-83
2022/06/03 06:57:21;;;;;;;8.17;7.57;;;19.30;99.90;;;;;;6009227;23;20449;-83
2022/06/03 06:59:52;;;;;;;7.90;7.30;;;19.50;99.90;;;;;;6010901;23;20519;-84
2022/06/03 07:02:24;;;;;;;8.53;7.87;;;19.60;99.90;;;;;;6014142;23;20433;-84
2022/06/03 07:05:02;;;;;;;7.37;6.87;;;19.70;99.90;;;;;;6008974;23;20482;-83
2022/06/03 07:07:35;;;;;;;7.70;6.90;;;19.70;99.90;;;;;;6009271;23;20459;-85
2022/06/03 07:10:07;;;;;;;7.73;7.00;;;19.80;99.90;;;;;;6001219;23;20464;-84
2022/06/03 07:12:42;;;;;;;8.30;7.47;;;19.90;99.90;;;;;;5999330;23;20529;-85
2022/06/03 07:15:13;;;;;;;8.43;7.63;;;20.00;99.90;;;;;;5996437;23;21058;-85
2022/06/03 07:20:47;;;;;;;8.00;7.37;;;20.40;99.90;;;;;;5993507;23;20516;-84
2022/06/03 07:23:22;;;;;;;8.20;7.60;;;20.50;99.90;;;;;;5999060;23;20558;-84
2022/06/03 07:25:56;;;;;;;7.70;7.17;;;20.70;99.90;;;;;;5991608;23;20476;-84
2022/06/03 07:28:36;;;;;;;7.43;6.73;;;20.80;99.90;;;;;;5987430;23;20552;-83
2022/06/03 07:31:15;;;;;;;7.23;6.73;;;20.90;99.90;;;;;;5993142;23;20443;-83
2022/06/03 07:33:53;;;;;;;7.10;6.50;;;21.20;99.90;;;;;;5998440;23;20452;-83
2022/06/03 07:36:39;;;;;;;6.10;5.70;;;21.50;99.90;;;;;;6006219;23;21075;-83
2022/06/03 07:39:37;;;;;;;7.67;7.07;;;22.00;99.90;;;;;;6003097;23;20440;-83
2022/06/03 07:42:11;;;;;;;6.47;6.07;;;22.70;99.90;;;;;;5993006;23;20445;-83
2022/06/03 07:44:54;;;;;;;5.90;5.43;;;23.40;99.90;;;;;;5999432;23;20645;-83
2022/06/03 07:47:23;;;;;;;6.83;6.03;;;24.10;99.90;;;;;;5998099;23;20433;-83
2022/06/03 07:49:56;;;;;;;7.00;6.23;;;24.50;99.90;;;;;;5996097;23;20500;-84
2022/06/03 07:52:33;;;;;;;5.07;4.67;;;25.00;99.90;;;;;;5995501;23;20438;-84
2022/06/03 07:55:08;;;;;;;5.00;4.60;;;25.50;99.90;;;;;;6000138;23;20468;-84
2022/06/03 07:57:35;;;;;;;5.57;5.17;;;26.30;99.30;;;;;;5998630;23;20460;-82
2022/06/03 08:00:12;;;;;;;5.93;5.43;;;26.80;98.10;;;;;;5997088;23;20447;-81
2022/06/03 08:02:39;;;;;;;5.80;5.40;;;27.00;97.40;;;;;;6001224;23;20436;-81
2022/06/03 08:05:10;;;;;;;4.90;4.50;;;27.20;96.80;;;;;;6003970;23;20469;-81
2022/06/03 08:13:12;;;;;;;5.90;5.40;;;27.70;95.00;;;;;;5997340;23;20452;-82
2022/06/03 08:15:46;;;;;;;6.23;5.70;;;27.70;94.40;;;;;;5998701;23;20457;-81
2022/06/03 08:18:17;;;;;;;6.00;5.50;;;27.80;94.50;;;;;;5999224;23;20477;-84
2022/06/03 08:20:48;;;;;;;4.83;4.43;;;27.90;94.20;;;;;;5995145;23;20477;-80
2022/06/03 08:23:17;;;;;;;5.53;5.07;;;28.10;93.50;;;;;;6000830;23;20433;-83
2022/06/03 08:25:46;;;;;;;5.40;5.00;;;28.40;93.60;;;;;;6000886;23;20477;-83
2022/06/03 08:28:17;;;;;;;5.13;4.63;;;28.30;92.80;;;;;;5998401;23;20524;-83
2022/06/03 08:30:49;;;;;;;5.27;4.77;;;28.20;92.90;;;;;;5994129;23;20429;-85
2022/06/03 08:33:21;;;;;;;4.77;4.40;;;28.20;92.80;;;;;;6001811;23;20448;-84
2022/06/03 08:35:48;;;;;;;4.63;4.33;;;28.70;92.30;;;;;;6000975;23;20988;-83
2022/06/03 08:38:20;;;;;;;5.03;4.67;;;28.80;91.70;;;;;;6001627;23;20446;-83
2022/06/03 08:40:56;;;;;;;5.17;4.73;;;29.20;91.70;;;;;;6006271;23;20506;-83
2022/06/03 08:43:29;;;;;;;5.57;5.07;;;29.30;91.00;;;;;;6001453;23;20433;-84
2022/06/03 08:46:08;;;;;;;7.53;4.33;;;29.20;91.00;;;;;;6005868;23;20472;-83
2022/06/03 08:48:39;;;;;;;4.47;4.07;;;29.70;90.30;;;;;;6000553;23;20523;-84
2022/06/03 08:51:12;;;;;;;5.10;3.93;;;29.90;90.00;;;;;;6006245;23;20869;-83
2022/06/03 08:53:48;;;;;;;3.87;3.57;;;30.10;88.60;;;;;;6005201;23;20457;-83
2022/06/03 08:56:18;;;;;;;5.37;4.63;;;30.40;86.50;;;;;;6000138;23;20472;-83
2022/06/03 08:58:52;;;;;;;3.50;3.30;;;30.30;86.10;;;;;;6005468;23;20447;-84
2022/06/03 09:01:32;;;;;;;4.20;3.90;;;29.90;86.30;;;;;;6007167;23;20439;-85
2022/06/03 09:04:10;;;;;;;4.03;3.70;;;29.60;87.60;;;;;;6003190;23;20433;-82
2022/06/03 09:06:52;;;;;;;4.60;4.20;;;29.10;89.20;;;;;;5998922;23;20515;-85
2022/06/03 09:09:29;;;;;;;4.90;4.60;;;28.80;89.80;;;;;;5987654;23;20445;-85
2022/06/03 09:12:04;;;;;;;4.10;3.80;;;29.10;89.40;;;;;;5999921;23;20437;-85
2022/06/03 09:14:33;;;;;;;4.03;3.73;;;29.30;88.60;;;;;;5999534;23;21059;-84
2022/06/03 09:17:07;;;;;;;3.67;3.37;;;29.30;89.20;;;;;;6001795;23;20449;-85
2022/06/03 09:19:41;;;;;;;3.47;3.27;;;29.90;87.90;;;;;;6004220;23;20774;-83
2022/06/03 09:22:13;;;;;;;3.93;3.60;;;30.70;85.50;;;;;;6007126;23;20460;-82
2022/06/03 09:24:42;;;;;;;3.50;3.30;;;31.20;83.50;;;;;;6006754;23;20524;-82
2022/06/03 09:27:16;;;;;;;6.10;3.43;;;32.00;82.10;;;;;;6003070;23;20433;-84
2022/06/03 09:29:48;;;;;;;3.70;3.50;;;32.90;79.40;;;;;;6003769;23;21054;-82
2022/06/03 09:32:18;;;;;;;3.97;3.67;;;33.20;77.30;;;;;;6002739;23;20467;-83
2022/06/03 09:34:48;;;;;;;3.80;3.50;;;33.00;77.90;;;;;;6002036;23;21083;-82
2022/06/03 09:37:20;;;;;;;3.57;3.27;;;33.20;76.30;;;;;;6005599;23;20444;-84
2022/06/03 09:39:50;;;;;;;4.10;3.40;;;33.20;75.50;;;;;;6017171;23;20437;-84
2022/06/03 09:42:19;;;;;;;3.43;3.20;;;33.30;74.30;;;;;;6012456;23;20444;-84
2022/06/03 09:44:49;;;;;;;3.70;3.27;;;32.90;74.50;;;;;;6001779;23;20457;-84
2022/06/03 09:47:20;;;;;;;3.33;3.10;;;32.60;75.60;;;;;;6001467;23;20528;-83
2022/06/03 09:49:50;;;;;;;3.37;3.17;;;32.90;75.30;;;;;;6001994;23;20441;-82
2022/06/03 09:52:21;;;;;;;3.20;3.00;;;32.90;76.20;;;;;;6007207;23;20436;-82
2022/06/03 09:54:49;;;;;;;3.10;2.90;;;33.00;75.50;;;;;;6003953;23;20468;-82
2022/06/03 09:57:21;;;;;;;3.07;2.83;;;33.30;73.10;;;;;;5999063;23;20460;-80
2022/06/03 09:59:55;;;;;;;3.20;2.90;;;33.80;72.00;;;;;;6004683;23;21130;-83
2022/06/03 10:02:23;;;;;;;3.63;3.33;;;33.90;71.90;;;;;;6001576;23;20537;-83
2022/06/03 10:04:50;;;;;;;3.20;3.00;;;33.90;70.80;;;;;;6000684;23;20808;-83
2022/06/03 10:07:18;;;;;;;3.60;3.30;;;34.40;70.20;;;;;;6002680;23;20480;-83
2022/06/03 10:12:49;;;;;;;3.10;2.90;;;34.80;67.90;;;;;;6001099;23;20437;-82
2022/06/03 10:15:39;;;;;;;4.97;2.97;;;34.90;66.20;;;;;;6003684;23;20582;-83
2022/06/03 10:18:15;;;;;;;3.30;3.03;;;34.80;66.90;;;;;;6004010;23;20488;-83
2022/06/03 10:20:42;;;;;;;3.17;2.93;;;34.20;66.20;;;;;;5999925;23;20476;-83
2022/06/03 10:23:10;;;;;;;3.13;2.73;;;33.60;67.80;;;;;;6001189;23;20794;-81
2022/06/03 10:25:39;;;;;;;3.63;3.13;;;33.10;70.50;;;;;;6005673;23;20485;-82
2022/06/03 10:28:08;;;;;;;2.63;2.53;;;33.00;70.50;;;;;;6001206;23;20484;-82
2022/06/03 10:30:39;;;;;;;2.60;2.50;;;33.10;70.00;;;;;;6005453;23;20781;-82
2022/06/03 10:33:16;;;;;;;3.40;3.10;;;33.20;69.60;;;;;;6003338;23;20532;-85
2022/06/03 10:35:43;;;;;;;3.30;3.10;;;33.60;69.30;;;;;;6008076;23;20471;-82
2022/06/03 10:38:10;;;;;;;2.80;2.60;;;34.20;68.30;;;;;;6011961;23;20532;-84
2022/06/03 10:40:39;;;;;;;2.63;2.20;;;35.10;66.30;;;;;;6002163;23;20838;-83
2022/06/03 10:43:07;;;;;;;2.90;2.70;;;35.90;64.20;;;;;;6006068;23;20460;-85
2022/06/03 10:45:36;;;;;;;2.80;2.60;;;35.90;62.30;;;;;;5999358;23;20472;-83
2022/06/03 10:48:21;;;;;;;2.70;2.50;;;35.90;61.70;;;;;;6001944;23;20925;-83
2022/06/03 10:50:48;;;;;;;3.13;2.83;;;35.50;62.30;;;;;;6009868;23;20471;-84
2022/06/03 11:01:45;;;;;;;3.27;3.00;;;34.50;64.30;;;;;;6004082;23;20467;-82
2022/06/03 11:04:29;;;;;;;2.70;2.50;;;34.40;63.80;;;;;;6009586;23;20520;-85
2022/06/03 11:06:59;;;;;;;2.33;2.23;;;34.30;64.30;;;;;;6009756;23;20551;-83
2022/06/03 11:09:27;;;;;;;3.97;2.80;;;34.30;63.70;;;;;;6005419;23;20450;-83
2022/06/03 11:12:00;;;;;;;2.80;2.50;;;34.30;63.70;;;;;;6013659;23;20433;-83
2022/06/03 11:14:36;;;;;;;2.90;2.70;;;33.60;63.80;;;;;;6002280;23;20457;-82
2022/06/03 11:17:16;;;;;;;3.20;3.00;;;33.10;65.30;;;;;;5999300;23;20999;-85
2022/06/03 11:19:47;;;;;;;3.30;3.00;;;32.70;66.30;;;;;;5997068;23;20440;-81
2022/06/03 11:22:18;;;;;;;3.60;3.30;;;32.10;68.20;;;;;;6010283;23;20539;-81
2022/06/03 11:24:51;;;;;;;3.30;3.10;;;31.60;69.40;;;;;;6008638;23;20461;-81
2022/06/03 11:27:21;;;;;;;4.00;3.57;;;30.90;71.70;;;;;;6001896;23;20572;-80
2022/06/03 11:29:51;;;;;;;4.17;3.87;;;30.20;73.40;;;;;;6001989;23;20451;-81
2022/06/03 11:32:19;;;;;;;3.90;3.70;;;29.70;74.50;;;;;;6003936;23;20438;-81
2022/06/03 11:34:51;;;;;;;4.07;3.77;;;29.10;76.00;;;;;;6000540;23;20548;-81
2022/06/03 11:37:24;;;;;;;3.80;3.53;;;28.60;77.50;;;;;;6001121;23;20551;-81
2022/06/03 11:39:54;;;;;;;3.90;3.60;;;28.20;78.70;;;;;;6007592;23;20468;-80
2022/06/03 11:42:28;;;;;;;4.13;3.70;;;27.90;79.90;;;;;;6003542;23;20470;-81
2022/06/03 11:45:08;;;;;;;4.10;3.80;;;27.60;80.90;;;;;;5999410;23;20998;-81
2022/06/03 11:47:42;;;;;;;4.10;3.70;;;27.30;81.80;;;;;;5998277;23;20445;-81
2022/06/03 11:50:11;;;;;;;3.83;3.53;;;27.00;82.70;;;;;;6004773;23;20560;-83
2022/06/03 11:52:39;;;;;;;4.27;3.80;;;26.90;83.40;;;;;;5997865;23;20449;-81
2022/06/03 11:55:07;;;;;;;3.97;3.57;;;26.70;84.30;;;;;;5995309;23;20610;-82
2022/06/03 11:57:35;;;;;;;5.70;3.77;;;26.60;85.10;;;;;;5995027;23;20548;-81
2022/06/03 12:00:07;;;;;;;3.93;3.63;;;26.60;86.50;;;;;;5997271;23;20838;-82
2022/06/03 12:02:39;;;;;;;4.27;3.87;;;26.60;88.40;;;;;;5998241;23;20776;-90
2022/06/03 12:05:15;;;;;;;3.77;3.37;;;26.60;90.40;;;;;;5991925;23;20821;-85
2022/06/03 12:07:49;;;;;;;3.70;3.40;;;26.60;91.00;;;;;;5997428;23;20436;-85
2022/06/03 12:10:26;;;;;;;4.83;3.90;;;26.60;91.80;;;;;;5998327;23;20519;-86
2022/06/03 12:13:17;;;;;;;5.37;4.20;;;26.70;92.80;;;;;;6002593;23;20460;-86
2022/06/03 12:16:03;;;;;;;4.67;4.20;;;26.90;93.80;;;;;;5993403;23;20965;-86
2022/06/03 12:18:56;;;;;;;4.43;4.03;;;27.40;95.90;;;;;;5996561;23;20524;-87
2022/06/03 12:22:14;;;;;;;4.97;4.47;;;28.00;95.90;;;;;;6004236;23;20453;-86
2022/06/03 12:24:45;;;;;;;4.27;3.87;;;28.80;95.90;;;;;;5998111;23;20519;-86
2022/06/03 12:27:35;;;;;;;5.17;4.67;;;29.50;94.30;;;;;;6001333;23;20488;-86
2022/06/03 12:30:35;;;;;;;4.80;4.40;;;30.00;94.10;;;;;;6002088;23;20429;-86
2022/06/03 12:33:06;;;;;;;3.97;3.70;;;30.40;93.40;;;;;;5996930;23;20475;-86
2022/06/03 12:35:56;;;;;;;4.87;3.87;;;30.70;92.10;;;;;;5995958;23;20476;-85
2022/06/03 12:38:32;;;;;;;5.23;4.57;;;31.20;90.30;;;;;;5994444;23;20528;-85
2022/06/03 12:41:01;;;;;;;4.23;3.90;;;31.50;90.10;;;;;;5994584;23;20508;-85
2022/06/03 12:43:31;;;;;;;4.10;3.80;;;31.50;89.10;;;;;;6010627;23;20505;-85
2022/06/03 12:46:00;;;;;;;4.50;4.20;;;31.40;89.60;;;;;;6001649;23;20567;-86
2022/06/03 12:48:47;;;;;;;4.23;3.70;;;31.20;88.80;;;;;;6001259;23;21020;-85
2022/06/03 12:51:24;;;;;;;4.00;3.70;;;31.00;89.10;;;;;;5999718;23;20437;-85
2022/06/03 12:53:54;;;;;;;3.73;3.40;;;30.90;89.40;;;;;;6000765;23;20457;-86
2022/06/03 12:56:39;;;;;;;5.53;3.87;;;30.70;89.40;;;;;;6011113;23;20484;-86
2022/06/03 12:59:16;;;;;;;4.23;3.93;;;30.50;89.20;;;;;;6007124;23;20495;-84
2022/06/03 13:02:02;;;;;;;4.63;3.80;;;30.30;88.40;;;;;;6007684;23;20508;-84
2022/06/03 13:05:05;;;;;;;4.00;3.70;;;30.10;89.00;;;;;;6009609;23;20527;-85
2022/06/03 13:07:39;;;;;;;4.97;4.60;;;30.00;89.00;;;;;;6013631;23;20476;-85
2022/06/03 13:10:52;;;;;;;4.63;4.30;;;29.70;90.10;;;;;;6005458;23;20436;-85
2022/06/03 13:13:35;;;;;;;4.63;4.23;;;29.30;87.60;;;;;;6003618;23;20449;-85
2022/06/03 13:16:39;;;;;;;5.00;4.70;;;28.80;89.50;;;;;;6011586;23;20520;-85
2022/06/03 13:19:49;;;;;;;4.83;4.43;;;28.30;89.80;;;;;;6002287;23;20542;-86
2022/06/03 13:22:29;;;;;;;4.20;3.90;;;28.00;90.50;;;;;;6007596;23;20496;-85
2022/06/03 13:25:28;;;;;;;5.10;3.87;;;27.70;90.40;;;;;;6005748;23;20464;-85
2022/06/03 13:28:34;;;;;;;5.27;4.87;;;27.40;90.60;;;;;;6012431;23;20464;-82
2022/06/03 13:31:18;;;;;;;4.97;4.67;;;27.10;91.30;;;;;;6013840;23;20522;-83
2022/06/03 13:34:22;;;;;;;4.77;4.20;;;26.80;91.90;;;;;;6017566;23;20865;-84
2022/06/03 13:37:12;;;;;;;4.87;4.43;;;26.60;93.10;;;;;;6007929;23;20532;-83
2022/06/03 13:40:15;;;;;;;4.70;4.30;;;26.50;95.70;;;;;;6008092;23;20731;-85
2022/06/03 13:43:21;;;;;;;5.10;4.70;;;26.50;97.60;;;;;;5994372;23;20433;-93
2022/06/03 13:46:08;;;;;;;5.57;5.27;;;26.40;99.60;;;;;;6009473;23;20441;-86
2022/06/03 13:49:00;;;;;;;6.00;5.50;;;26.30;99.90;;;;;;6010426;23;20457;-87
2022/06/03 13:51:51;;;;;;;6.83;6.33;;;26.20;99.90;;;;;;6014911;23;20484;-88
2022/06/03 13:54:22;;;;;;;5.50;5.10;;;25.90;99.90;;;;;;6039514;23;20467;-88
2022/06/03 13:57:02;;;;;;;6.33;5.83;;;25.60;99.90;;;;;;6015634;23;20488;-86
2022/06/03 13:59:38;;;;;;;6.43;6.00;;;25.40;99.90;;;;;;6010501;23;20848;-88
2022/06/03 14:02:14;;;;;;;5.83;5.53;;;25.30;99.90;;;;;;6003526;23;20688;-87
2022/06/03 14:04:51;;;;;;;6.07;5.67;;;25.20;99.90;;;;;;6003722;23;20460;-84
2022/06/03 14:07:28;;;;;;;6.20;5.80;;;25.20;99.90;;;;;;6001061;23;20495;-87
2022/06/03 14:10:02;;;;;;;6.93;6.43;;;25.30;99.90;;;;;;6001349;23;20516;-84
2022/06/03 14:12:34;;;;;;;6.80;6.30;;;25.30;99.90;;;;;;6002956;23;20444;-85
2022/06/03 14:15:12;;;;;;;8.07;7.30;;;25.30;99.90;;;;;;6004940;23;20475;-86
2022/06/03 14:17:52;;;;;;;5.53;5.13;;;25.40;99.90;;;;;;6015973;23;20444;-86
2022/06/03 14:20:24;;;;;;;5.80;5.40;;;25.60;99.90;;;;;;6007815;23;20535;-88
2022/06/03 14:22:58;;;;;;;5.80;5.40;;;25.60;99.90;;;;;;6001092;23;20833;-84
2022/06/03 14:25:30;;;;;;;6.37;5.77;;;25.70;99.90;;;;;;5996264;23;20552;-85
2022/06/03 14:28:01;;;;;;;6.50;5.57;;;25.70;99.90;;;;;;5999379;23;20472;-87
2022/06/03 14:30:42;;;;;;;5.70;5.23;;;25.70;99.90;;;;;;5998812;23;20492;-84
2022/06/03 14:33:11;;;;;;;5.33;4.93;;;25.60;99.90;;;;;;6000121;23;20452;-82
2022/06/03 14:35:41;;;;;;;5.93;5.33;;;25.70;99.90;;;;;;6000319;23;20434;-82
2022/06/03 14:38:13;;;;;;;5.80;5.40;;;25.70;99.90;;;;;;5998288;23;20449;-81
2022/06/03 14:40:45;;;;;;;5.93;5.53;;;25.60;99.90;;;;;;5999012;23;20433;-84